createdAt,value
2016-06-20T00:00:31.696Z,1012
2016-06-20T00:01:31.730Z,1012.02
2016-06-20T00:02:31.750Z,1011.99
2016-06-20T00:03:31.769Z,1012.04
2016-06-20T00:04:31.803Z,1012.02
2016-06-20T00:05:31.823Z,1012.03
2016-06-20T00:06:31.857Z,1011.97
2016-06-20T00:07:31.876Z,1011.98
2016-06-20T00:08:31.911Z,1011.98
2016-06-20T00:09:31.930Z,1011.97
2016-06-20T00:10:31.949Z,1011.99
2016-06-20T00:11:31.984Z,1012
2016-06-20T00:12:32.003Z,1011.95
2016-06-20T00:13:32.037Z,1011.95
2016-06-20T00:14:32.057Z,1011.97
2016-06-20T00:15:32.076Z,1011.94
2016-06-20T00:16:32.111Z,1011.95
2016-06-20T00:17:32.129Z,1011.93
2016-06-20T00:18:32.164Z,1011.92
2016-06-20T00:19:32.184Z,1011.9
2016-06-20T00:20:32.203Z,1011.9
2016-06-20T00:21:32.237Z,1011.91
2016-06-20T00:22:32.257Z,1011.9
2016-06-20T00:23:32.306Z,1011.91
2016-06-20T00:24:32.310Z,1011.92
2016-06-20T00:25:32.329Z,1011.84
2016-06-20T00:26:32.363Z,1011.84
2016-06-20T00:27:32.384Z,1011.85
2016-06-20T00:28:32.418Z,1011.86
2016-06-20T00:29:32.437Z,1011.88
2016-06-20T00:30:32.455Z,1011.86
2016-06-20T00:31:32.491Z,1011.85
2016-06-20T00:32:32.510Z,1011.82
2016-06-20T00:33:32.529Z,1011.78
2016-06-20T00:34:32.563Z,1011.77
2016-06-20T00:35:32.583Z,1011.74
2016-06-20T00:36:32.618Z,1011.76
2016-06-20T00:37:32.637Z,1011.74
2016-06-20T00:38:32.671Z,1011.74
2016-06-20T00:39:32.800Z,1011.74
2016-06-20T00:40:32.709Z,1011.69
2016-06-20T00:41:32.743Z,1011.71
2016-06-20T00:42:32.763Z,1011.67
2016-06-20T00:43:32.798Z,1011.64
2016-06-20T00:44:32.817Z,1011.68
2016-06-20T00:45:32.837Z,1011.63
2016-06-20T00:46:32.871Z,1011.65
2016-06-20T00:47:32.890Z,1011.63
2016-06-20T00:48:32.909Z,1011.59
2016-06-20T00:49:32.944Z,1011.59
2016-06-20T00:50:32.962Z,1011.61
2016-06-20T00:51:32.982Z,1011.56
2016-06-20T00:52:33.016Z,1011.56
2016-06-20T00:53:33.067Z,1011.54
2016-06-20T00:54:33.070Z,1011.55
2016-06-20T00:55:33.089Z,1011.51
2016-06-20T00:56:33.108Z,1011.51
2016-06-20T00:57:33.143Z,1011.48
2016-06-20T00:58:33.162Z,1011.43
2016-06-20T00:59:33.181Z,1011.38
2016-06-20T01:00:33.217Z,1011.42
2016-06-20T01:01:33.235Z,1011.39
2016-06-20T01:02:33.270Z,1011.38
2016-06-20T01:03:33.289Z,1011.39
2016-06-20T01:04:33.308Z,1011.41
2016-06-20T01:05:33.343Z,1011.37
2016-06-20T01:06:33.362Z,1011.39
2016-06-20T01:07:33.381Z,1011.33
2016-06-20T01:08:33.416Z,1011.35
2016-06-20T01:09:33.434Z,1011.29
2016-06-20T01:10:33.469Z,1011.29
2016-06-20T01:11:33.489Z,1011.27
2016-06-20T01:12:33.508Z,1011.26
2016-06-20T01:13:33.542Z,1011.23
2016-06-20T01:14:33.562Z,1011.23
2016-06-20T01:15:33.581Z,1011.25
2016-06-20T01:16:33.615Z,1011.19
2016-06-20T01:17:33.634Z,1011.19
2016-06-20T01:18:33.668Z,1011.17
2016-06-20T01:19:33.688Z,1011.21
2016-06-20T01:20:33.708Z,1011.21
2016-06-20T01:21:33.742Z,1011.19
2016-06-20T01:22:33.760Z,1011.2
2016-06-20T01:23:33.780Z,1011.19
2016-06-20T01:24:33.815Z,1011.17
2016-06-20T01:25:33.834Z,1011.15
2016-06-20T01:26:33.868Z,1011.18
2016-06-20T01:27:33.888Z,1011.13
2016-06-20T01:28:33.907Z,1011.17
2016-06-20T01:29:33.926Z,1011.13
2016-06-20T01:30:33.960Z,1011.12
2016-06-20T01:31:33.980Z,1011.12
2016-06-20T01:32:34.000Z,1011.09
2016-06-20T01:33:34.034Z,1011.12
2016-06-20T01:34:34.052Z,1011.14
2016-06-20T01:35:34.149Z,1011.14
2016-06-20T01:36:34.153Z,1011.16
2016-06-20T01:37:34.126Z,1011.18
2016-06-20T01:38:34.160Z,1011.19
2016-06-20T01:39:34.180Z,1011.2
2016-06-20T01:40:34.214Z,1011.19
2016-06-20T01:41:34.233Z,1011.19
2016-06-20T01:42:34.252Z,1011.2
2016-06-20T01:43:34.287Z,1011.17
2016-06-20T01:44:34.306Z,1011.18
2016-06-20T01:45:34.325Z,1011.19
2016-06-20T01:46:34.359Z,1011.22
2016-06-20T01:47:34.379Z,1011.16
2016-06-20T01:48:34.397Z,1011.2
2016-06-20T01:49:34.417Z,1011.22
2016-06-20T01:50:34.451Z,1011.25
2016-06-20T01:51:34.471Z,1011.21
2016-06-20T01:52:34.489Z,1011.2
2016-06-20T01:53:34.525Z,1011.21
2016-06-20T01:54:34.544Z,1011.2
2016-06-20T01:55:34.579Z,1011.23
2016-06-20T01:56:34.597Z,1011.24
2016-06-20T01:57:34.617Z,1011.2
2016-06-20T01:58:34.651Z,1011.23
2016-06-20T01:59:34.671Z,1011.23
2016-06-20T02:00:34.689Z,1011.24
2016-06-20T02:01:34.724Z,1011.26
2016-06-20T02:02:34.743Z,1011.25
2016-06-20T02:03:34.762Z,1011.23
2016-06-20T02:04:34.796Z,1011.24
2016-06-20T02:05:34.816Z,1011.22
2016-06-20T02:06:34.835Z,1011.24
2016-06-20T02:07:34.870Z,1011.2
2016-06-20T02:08:34.889Z,1011.19
2016-06-20T02:09:34.908Z,1011.2
2016-06-20T02:10:34.943Z,1011.19
2016-06-20T02:11:34.962Z,1011.21
2016-06-20T02:12:34.981Z,1011.17
2016-06-20T02:13:35.016Z,1011.17
2016-06-20T02:14:35.035Z,1011.15
2016-06-20T02:15:35.054Z,1011.15
2016-06-20T02:16:35.088Z,1011.14
2016-06-20T02:17:35.108Z,1011.15
2016-06-20T02:18:35.126Z,1011.15
2016-06-20T02:19:35.161Z,1011.17
2016-06-20T02:20:35.180Z,1011.22
2016-06-20T02:21:35.199Z,1011.21
2016-06-20T02:22:35.218Z,1011.18
2016-06-20T02:23:35.254Z,1011.15
2016-06-20T02:24:35.288Z,1011.2
2016-06-20T02:25:35.307Z,1011.23
2016-06-20T02:26:35.373Z,1011.22
2016-06-20T02:27:35.501Z,1011.27
2016-06-20T02:28:35.380Z,1011.26
2016-06-20T02:29:35.400Z,1011.25
2016-06-20T02:30:35.418Z,1011.28
2016-06-20T02:31:35.453Z,1011.28
2016-06-20T02:32:35.472Z,1011.29
2016-06-20T02:33:35.491Z,1011.26
2016-06-20T02:34:35.525Z,1011.29
2016-06-20T02:35:35.545Z,1011.29
2016-06-20T02:36:35.563Z,1011.31
2016-06-20T02:37:35.583Z,1011.27
2016-06-20T02:38:35.617Z,1011.3
2016-06-20T02:39:35.636Z,1011.31
2016-06-20T02:40:35.655Z,1011.33
2016-06-20T02:41:35.691Z,1011.37
2016-06-20T02:42:35.709Z,1011.34
2016-06-20T02:43:35.729Z,1011.35
2016-06-20T02:44:35.763Z,1011.35
2016-06-20T02:45:35.783Z,1011.37
2016-06-20T02:46:35.801Z,1011.37
2016-06-20T02:47:35.836Z,1011.36
2016-06-20T02:48:35.855Z,1011.32
2016-06-20T02:49:35.875Z,1011.34
2016-06-20T02:50:36.002Z,1011.36
2016-06-20T02:51:35.928Z,1011.35
2016-06-20T02:52:35.947Z,1011.37
2016-06-20T02:53:35.997Z,1011.39
2016-06-20T02:54:36.000Z,1011.39
2016-06-20T02:55:36.020Z,1011.45
2016-06-20T02:56:36.044Z,1011.46
2016-06-20T02:57:36.134Z,1011.45
2016-06-20T02:58:36.114Z,1011.45
2016-06-20T02:59:36.142Z,1011.45
2016-06-20T03:00:36.184Z,1011.43
2016-06-20T03:01:36.210Z,1011.38
2016-06-20T03:02:36.232Z,1011.4
2016-06-20T03:03:36.270Z,1011.4
2016-06-20T03:04:36.308Z,1011.4
2016-06-20T03:05:36.314Z,1011.42
2016-06-20T03:06:36.351Z,1011.42
2016-06-20T03:07:36.371Z,1011.41
2016-06-20T03:08:36.391Z,1011.37
2016-06-20T03:09:36.411Z,1011.4
2016-06-20T03:10:36.447Z,1011.38
2016-06-20T03:11:36.467Z,1011.39
2016-06-20T03:12:36.486Z,1011.4
2016-06-20T03:13:36.522Z,1011.39
2016-06-20T03:14:36.542Z,1011.41
2016-06-20T03:15:36.560Z,1011.36
2016-06-20T03:16:36.595Z,1011.42
2016-06-20T03:17:36.615Z,1011.4
2016-06-20T03:18:36.635Z,1011.41
2016-06-20T03:19:36.669Z,1011.4
2016-06-20T03:20:36.690Z,1011.35
2016-06-20T03:21:36.708Z,1011.38
2016-06-20T03:22:36.728Z,1011.37
2016-06-20T03:23:36.762Z,1011.32
2016-06-20T03:24:36.797Z,1011.35
2016-06-20T03:25:36.800Z,1011.35
2016-06-20T03:26:36.836Z,1011.32
2016-06-20T03:27:36.901Z,1011.35
2016-06-20T03:28:36.873Z,1011.35
2016-06-20T03:29:36.908Z,1011.38
2016-06-20T03:30:36.927Z,1011.37
2016-06-20T03:31:36.945Z,1011.34
2016-06-20T03:32:36.965Z,1011.37
2016-06-20T03:33:37.000Z,1011.35
2016-06-20T03:34:37.019Z,1011.37
2016-06-20T03:35:37.037Z,1011.35
2016-06-20T03:36:37.073Z,1011.33
2016-06-20T03:37:37.091Z,1011.3
2016-06-20T03:38:37.111Z,1011.32
2016-06-20T03:39:37.131Z,1011.32
2016-06-20T03:40:37.165Z,1011.32
2016-06-20T03:41:37.184Z,1011.34
2016-06-20T03:42:37.203Z,1011.38
2016-06-20T03:43:37.237Z,1011.36
2016-06-20T03:44:37.273Z,1011.37
2016-06-20T03:45:37.277Z,1011.35
2016-06-20T03:46:37.294Z,1011.34
2016-06-20T03:47:37.329Z,1011.36
2016-06-20T03:48:37.348Z,1011.35
2016-06-20T03:49:37.368Z,1011.35
2016-06-20T03:50:37.402Z,1011.36
2016-06-20T03:51:37.422Z,1011.41
2016-06-20T03:52:37.440Z,1011.39
2016-06-20T03:53:37.475Z,1011.41
2016-06-20T03:54:37.494Z,1011.37
2016-06-20T03:55:37.514Z,1011.41
2016-06-20T03:56:37.532Z,1011.41
2016-06-20T03:57:37.568Z,1011.42
2016-06-20T03:58:37.586Z,1011.42
2016-06-20T03:59:37.606Z,1011.4
2016-06-20T04:00:37.640Z,1011.4
2016-06-20T04:01:37.659Z,1011.38
2016-06-20T04:02:37.678Z,1011.42
2016-06-20T04:03:37.697Z,1011.43
2016-06-20T04:04:37.732Z,1011.44
2016-06-20T04:05:37.751Z,1011.39
2016-06-20T04:06:37.769Z,1011.39
2016-06-20T04:07:37.914Z,1011.41
2016-06-20T04:08:37.824Z,1011.38
2016-06-20T04:09:37.843Z,1011.41
2016-06-20T04:10:37.863Z,1011.44
2016-06-20T04:11:37.897Z,1011.43
2016-06-20T04:12:37.915Z,1011.41
2016-06-20T04:13:37.935Z,1011.45
2016-06-20T04:14:38.002Z,1011.38
2016-06-20T04:15:37.989Z,1011.41
2016-06-20T04:16:38.009Z,1011.42
2016-06-20T04:17:38.027Z,1011.39
2016-06-20T04:18:38.061Z,1011.39
2016-06-20T04:19:38.081Z,1011.4
2016-06-20T04:20:38.101Z,1011.4
2016-06-20T04:21:38.118Z,1011.4
2016-06-20T04:22:38.169Z,1011.42
2016-06-20T04:23:38.172Z,1011.45
2016-06-20T04:24:38.192Z,1011.45
2016-06-20T04:25:38.226Z,1011.43
2016-06-20T04:26:38.246Z,1011.43
2016-06-20T04:27:38.280Z,1011.41
2016-06-20T04:28:38.284Z,1011.43
2016-06-20T04:29:38.318Z,1011.38
2016-06-20T04:30:38.338Z,1011.35
2016-06-20T04:31:38.357Z,1011.39
2016-06-20T04:32:38.392Z,1011.37
2016-06-20T04:33:38.410Z,1011.4
2016-06-20T04:34:38.429Z,1011.35
2016-06-20T04:35:38.449Z,1011.37
2016-06-20T04:36:38.483Z,1011.36
2016-06-20T04:37:38.596Z,1011.36
2016-06-20T04:38:38.521Z,1011.39
2016-06-20T04:39:38.541Z,1011.37
2016-06-20T04:40:38.575Z,1011.38
2016-06-20T04:41:38.595Z,1011.38
2016-06-20T04:42:38.613Z,1011.4
2016-06-20T04:43:38.648Z,1011.43
2016-06-20T04:44:38.667Z,1011.37
2016-06-20T04:45:38.687Z,1011.38
2016-06-20T04:46:38.705Z,1011.36
2016-06-20T04:47:38.741Z,1011.36
2016-06-20T04:48:38.759Z,1011.35
2016-06-20T04:49:38.778Z,1011.33
2016-06-20T04:50:38.813Z,1011.26
2016-06-20T04:51:38.833Z,1011.28
2016-06-20T04:52:38.850Z,1011.27
2016-06-20T04:53:38.870Z,1011.26
2016-06-20T04:54:38.905Z,1011.25
2016-06-20T04:55:38.924Z,1011.25
2016-06-20T04:56:38.942Z,1011.21
2016-06-20T04:57:38.978Z,1011.21
2016-06-20T04:58:38.996Z,1011.21
2016-06-20T04:59:39.016Z,1011.24
2016-06-20T05:00:39.051Z,1011.23
2016-06-20T05:01:39.070Z,1011.26
2016-06-20T05:02:39.089Z,1011.25
2016-06-20T05:03:39.108Z,1011.28
2016-06-20T05:04:39.127Z,1011.25
2016-06-20T05:05:39.162Z,1011.3
2016-06-20T05:06:39.291Z,1011.27
2016-06-20T05:07:39.200Z,1011.33
2016-06-20T05:08:39.234Z,1011.29
2016-06-20T05:09:39.254Z,1011.3
2016-06-20T05:10:39.273Z,1011.32
2016-06-20T05:11:39.291Z,1011.3
2016-06-20T05:12:39.327Z,1011.29
2016-06-20T05:13:39.345Z,1011.27
2016-06-20T05:14:39.365Z,1011.21
2016-06-20T05:15:39.383Z,1011.24
2016-06-20T05:16:39.419Z,1011.21
2016-06-20T05:17:39.438Z,1011.21
2016-06-20T05:18:39.457Z,1011.16
2016-06-20T05:19:39.491Z,1011.2
2016-06-20T05:20:39.511Z,1011.15
2016-06-20T05:21:39.529Z,1011.11
2016-06-20T05:22:39.548Z,1011.11
2016-06-20T05:23:39.583Z,1011.13
2016-06-20T05:24:39.602Z,1011.14
2016-06-20T05:25:39.622Z,1011.13
2016-06-20T05:26:39.640Z,1011.13
2016-06-20T05:27:39.675Z,1011.12
2016-06-20T05:28:39.694Z,1011.09
2016-06-20T05:29:39.714Z,1011.09
2016-06-20T05:30:39.748Z,1011.12
2016-06-20T05:31:39.768Z,1011.15
2016-06-20T05:32:39.786Z,1011.12
2016-06-20T05:33:39.820Z,1011.1
2016-06-20T05:34:39.840Z,1011.13
2016-06-20T05:35:39.860Z,1011.13
2016-06-20T05:36:39.878Z,1011.12
2016-06-20T05:37:39.914Z,1011.11
2016-06-20T05:38:39.932Z,1011.11
2016-06-20T05:39:39.951Z,1011.09
2016-06-20T05:40:39.970Z,1011.13
2016-06-20T05:41:40.036Z,1011.09
2016-06-20T05:42:40.024Z,1011.1
2016-06-20T05:43:40.043Z,1011.07
2016-06-20T05:44:40.062Z,1011.07
2016-06-20T05:45:40.097Z,1011.03
2016-06-20T05:46:40.116Z,1011.07
2016-06-20T05:47:40.135Z,1011.05
2016-06-20T05:48:40.169Z,1011.05
2016-06-20T05:49:40.189Z,1011.08
2016-06-20T05:50:40.208Z,1011.08
2016-06-20T05:51:40.227Z,1011.07
2016-06-20T05:52:40.261Z,1011.06
2016-06-20T05:53:40.281Z,1011.03
2016-06-20T05:54:40.300Z,1011.07
2016-06-20T05:55:40.335Z,1011.06
2016-06-20T05:56:40.354Z,1011.05
2016-06-20T05:57:40.372Z,1011.05
2016-06-20T05:58:40.392Z,1011.06
2016-06-20T05:59:40.426Z,1011.07
2016-06-20T06:00:40.461Z,1011.02
2016-06-20T06:01:40.465Z,1011.04
2016-06-20T06:02:40.500Z,1011.07
2016-06-20T06:03:40.518Z,1011.02
2016-06-20T06:04:40.538Z,1011.01
2016-06-20T06:05:40.556Z,1010.97
2016-06-20T06:06:40.592Z,1010.95
2016-06-20T06:07:40.610Z,1010.98
2016-06-20T06:08:40.646Z,1010.9
2016-06-20T06:09:40.649Z,1010.94
2016-06-20T06:10:40.683Z,1010.91
2016-06-20T06:11:40.702Z,1010.88
2016-06-20T06:12:40.721Z,1010.87
2016-06-20T06:13:40.756Z,1010.82
2016-06-20T06:14:40.775Z,1010.84
2016-06-20T06:15:40.810Z,1010.85
2016-06-20T06:16:40.814Z,1010.8
2016-06-20T06:17:40.847Z,1010.79
2016-06-20T06:18:40.868Z,1010.81
2016-06-20T06:19:40.887Z,1010.78
2016-06-20T06:20:40.921Z,1010.79
2016-06-20T06:21:40.941Z,1010.8
2016-06-20T06:22:40.959Z,1010.78
2016-06-20T06:23:40.994Z,1010.77
2016-06-20T06:24:41.013Z,1010.78
2016-06-20T06:25:41.032Z,1010.82
2016-06-20T06:26:41.067Z,1010.79
2016-06-20T06:27:41.087Z,1010.77
2016-06-20T06:28:53.699Z,1010.79
2016-06-20T06:29:41.124Z,1010.75
2016-06-20T06:30:41.159Z,1010.76
2016-06-20T06:31:41.178Z,1010.72
2016-06-20T06:32:41.197Z,1010.75
2016-06-20T06:33:41.232Z,1010.73
2016-06-20T06:34:41.250Z,1010.73
2016-06-20T06:35:41.270Z,1010.7
2016-06-20T06:36:41.288Z,1010.73
2016-06-20T06:37:41.324Z,1010.7
2016-06-20T06:38:41.342Z,1010.69
2016-06-20T06:39:41.362Z,1010.72
2016-06-20T06:40:41.381Z,1010.66
2016-06-20T06:41:41.415Z,1010.68
2016-06-20T06:42:41.434Z,1010.62
2016-06-20T06:43:41.453Z,1010.61
2016-06-20T06:44:41.489Z,1010.56
2016-06-20T06:45:41.508Z,1010.57
2016-06-20T06:46:41.527Z,1010.55
2016-06-20T06:47:41.562Z,1010.58
2016-06-20T06:48:41.580Z,1010.54
2016-06-20T06:49:41.600Z,1010.59
2016-06-20T06:50:41.619Z,1010.6
2016-06-20T06:51:41.654Z,1010.57
2016-06-20T06:52:41.673Z,1010.56
2016-06-20T06:53:41.691Z,1010.56
2016-06-20T06:54:41.726Z,1010.57
2016-06-20T06:55:41.745Z,1010.57
2016-06-20T06:56:41.765Z,1010.55
2016-06-20T06:57:41.799Z,1010.52
2016-06-20T06:58:41.819Z,1010.54
2016-06-20T06:59:41.837Z,1010.54
2016-06-20T07:00:41.857Z,1010.56
2016-06-20T07:01:41.892Z,1010.57
2016-06-20T07:02:41.910Z,1010.58
2016-06-20T07:03:41.929Z,1010.6
2016-06-20T07:04:41.965Z,1010.61
2016-06-20T07:05:41.983Z,1010.64
2016-06-20T07:06:42.002Z,1010.62
2016-06-20T07:07:42.021Z,1010.6
2016-06-20T07:08:42.057Z,1010.6
2016-06-20T07:09:42.075Z,1010.61
2016-06-20T07:10:42.094Z,1010.63
2016-06-20T07:11:42.129Z,1010.65
2016-06-20T07:12:42.148Z,1010.64
2016-06-20T07:13:42.167Z,1010.67
2016-06-20T07:14:42.202Z,1010.68
2016-06-20T07:15:42.220Z,1010.68
2016-06-20T07:16:42.240Z,1010.66
2016-06-20T07:17:42.275Z,1010.67
2016-06-20T07:18:42.294Z,1010.64
2016-06-20T07:19:42.312Z,1010.67
2016-06-20T07:20:42.332Z,1010.66
2016-06-20T07:21:42.366Z,1010.65
2016-06-20T07:22:42.386Z,1010.62
2016-06-20T07:23:42.421Z,1010.62
2016-06-20T07:24:42.439Z,1010.61
2016-06-20T07:25:42.458Z,1010.54
2016-06-20T07:26:42.477Z,1010.56
2016-06-20T07:27:42.559Z,1010.56
2016-06-20T07:28:42.532Z,1010.55
2016-06-20T07:29:42.557Z,1010.59
2016-06-20T07:30:42.599Z,1010.59
2016-06-20T07:31:42.625Z,1010.58
2016-06-20T07:32:42.652Z,1010.56
2016-06-20T07:33:42.693Z,1010.56
2016-06-20T07:34:42.716Z,1010.58
2016-06-20T07:35:42.738Z,1010.61
2016-06-20T07:36:42.774Z,1010.61
2016-06-20T07:37:42.795Z,1010.58
2016-06-20T07:38:42.817Z,1010.59
2016-06-20T07:39:42.853Z,1010.62
2016-06-20T07:40:42.874Z,1010.59
2016-06-20T07:41:42.894Z,1010.58
2016-06-20T07:42:43.007Z,1010.58
2016-06-20T07:43:42.949Z,1010.56
2016-06-20T07:44:42.969Z,1010.57
2016-06-20T07:45:43.004Z,1010.54
2016-06-20T07:46:43.023Z,1010.55
2016-06-20T07:47:43.044Z,1010.6
2016-06-20T07:48:43.078Z,1010.59
2016-06-20T07:49:43.097Z,1010.56
2016-06-20T07:50:43.117Z,1010.54
2016-06-20T07:51:43.150Z,1010.57
2016-06-20T07:52:43.171Z,1010.54
2016-06-20T07:53:43.204Z,1010.54
2016-06-20T07:54:43.224Z,1010.47
2016-06-20T07:55:43.243Z,1010.53
2016-06-20T07:56:43.262Z,1010.51
2016-06-20T07:57:43.297Z,1010.55
2016-06-20T07:58:43.316Z,1010.52
2016-06-20T07:59:43.351Z,1010.54
2016-06-20T08:00:43.370Z,1010.56
2016-06-20T08:01:43.388Z,1010.57
2016-06-20T08:02:43.424Z,1010.56
2016-06-20T08:03:43.442Z,1010.59
2016-06-20T08:04:43.478Z,1010.58
2016-06-20T08:05:43.497Z,1010.53
2016-06-20T08:06:43.516Z,1010.55
2016-06-20T08:07:43.550Z,1010.53
2016-06-20T08:08:43.570Z,1010.54
2016-06-20T08:09:43.588Z,1010.5
2016-06-20T08:10:43.624Z,1010.53
2016-06-20T08:11:43.642Z,1010.48
2016-06-20T08:12:43.676Z,1010.54
2016-06-20T08:13:43.696Z,1010.5
2016-06-20T08:14:43.840Z,1010.5
2016-06-20T08:15:43.844Z,1010.52
2016-06-20T08:16:43.770Z,1010.49
2016-06-20T08:17:43.788Z,1010.51
2016-06-20T08:18:43.822Z,1010.48
2016-06-20T08:19:43.842Z,1010.54
2016-06-20T08:20:43.861Z,1010.56
2016-06-20T08:21:43.895Z,1010.59
2016-06-20T08:22:43.915Z,1010.54
2016-06-20T08:23:43.949Z,1010.51
2016-06-20T08:24:43.968Z,1010.59
2016-06-20T08:25:44.003Z,1010.57
2016-06-20T08:26:44.022Z,1010.57
2016-06-20T08:27:44.057Z,1010.53
2016-06-20T08:28:44.075Z,1010.53
2016-06-20T08:29:44.095Z,1010.54
2016-06-20T08:30:44.146Z,1010.56
2016-06-20T08:31:44.149Z,1010.57
2016-06-20T08:32:44.183Z,1010.53
2016-06-20T08:33:44.204Z,1010.5
2016-06-20T08:34:44.222Z,1010.58
2016-06-20T08:35:44.256Z,1010.53
2016-06-20T08:36:44.275Z,1010.51
2016-06-20T08:37:44.310Z,1010.46
2016-06-20T08:38:44.329Z,1010.51
2016-06-20T08:39:44.364Z,1010.46
2016-06-20T08:40:44.384Z,1010.47
2016-06-20T08:41:44.417Z,1010.54
2016-06-20T08:42:44.437Z,1010.43
2016-06-20T08:43:44.456Z,1010.45
2016-06-20T08:44:44.491Z,1010.44
2016-06-20T08:45:44.526Z,1010.43
2016-06-20T08:46:44.544Z,1010.43
2016-06-20T08:47:44.563Z,1010.46
2016-06-20T08:48:44.598Z,1010.41
2016-06-20T08:49:44.618Z,1010.39
2016-06-20T08:50:44.652Z,1010.42
2016-06-20T08:51:44.672Z,1010.39
2016-06-20T08:52:44.706Z,1010.4
2016-06-20T08:53:44.725Z,1010.38
2016-06-20T08:54:44.760Z,1010.36
2016-06-20T08:55:44.780Z,1010.37
2016-06-20T08:56:44.814Z,1010.39
2016-06-20T08:57:44.832Z,1010.37
2016-06-20T08:58:44.868Z,1010.35
2016-06-20T08:59:44.886Z,1010.34
2016-06-20T09:00:44.921Z,1010.32
2016-06-20T09:01:44.956Z,1010.29
2016-06-20T09:02:44.975Z,1010.27
2016-06-20T09:03:44.994Z,1010.31
2016-06-20T09:04:45.029Z,1010.28
2016-06-20T09:05:45.063Z,1010.28
2016-06-20T09:06:45.083Z,1010.23
2016-06-20T09:07:45.117Z,1010.21
2016-06-20T09:08:45.136Z,1010.23
2016-06-20T09:09:45.171Z,1010.26
2016-06-20T09:10:45.191Z,1010.25
2016-06-20T09:11:45.225Z,1010.24
2016-06-20T09:12:45.245Z,1010.25
2016-06-20T09:13:45.278Z,1010.24
2016-06-20T09:14:45.298Z,1010.26
2016-06-20T09:15:45.333Z,1010.31
2016-06-20T09:16:45.367Z,1010.2
2016-06-20T09:17:45.386Z,1010.21
2016-06-20T09:18:45.421Z,1010.18
2016-06-20T09:19:45.440Z,1010.16
2016-06-20T09:20:45.475Z,1010.15
2016-06-20T09:21:45.494Z,1010.17
2016-06-20T09:22:45.529Z,1010.13
2016-06-20T09:23:45.563Z,1010.1
2016-06-20T09:24:45.582Z,1010.1
2016-06-20T09:25:45.617Z,1010.08
2016-06-20T09:26:45.637Z,1010.07
2016-06-20T09:27:45.718Z,1010.06
2016-06-20T09:28:45.689Z,1010.09
2016-06-20T09:29:45.725Z,1010.1
2016-06-20T09:30:45.759Z,1010.1
2016-06-20T09:31:45.794Z,1010.08
2016-06-20T09:32:45.814Z,1010.06
2016-06-20T09:33:45.847Z,1010.11
2016-06-20T09:34:45.867Z,1010.13
2016-06-20T09:35:45.933Z,1010.14
2016-06-20T09:36:45.936Z,1010.16
2016-06-20T09:37:45.955Z,1010.13
2016-06-20T09:38:45.990Z,1010.11
2016-06-20T09:39:46.009Z,1010.12
2016-06-20T09:40:46.044Z,1010.08
2016-06-20T09:41:46.078Z,1010.04
2016-06-20T09:42:46.098Z,1010.05
2016-06-20T09:43:46.133Z,1010.07
2016-06-20T09:44:46.152Z,1010.02
2016-06-20T09:45:46.187Z,1010.09
2016-06-20T09:46:46.221Z,1010.02
2016-06-20T09:47:46.241Z,1010.09
2016-06-20T09:48:46.275Z,1010.07
2016-06-20T09:49:46.309Z,1010.1
2016-06-20T09:50:46.328Z,1010.04
2016-06-20T09:51:46.363Z,1010.04
2016-06-20T09:52:46.397Z,1010
2016-06-20T09:53:46.417Z,1010.07
2016-06-20T09:54:46.451Z,1010.08
2016-06-20T09:55:46.471Z,1010.08
2016-06-20T09:56:46.505Z,1010.07
2016-06-20T09:57:46.540Z,1010.04
2016-06-20T09:58:46.559Z,1010.03
2016-06-20T09:59:46.626Z,1010.07
2016-06-20T10:00:46.629Z,1010.06
2016-06-20T10:01:46.647Z,1010.02
2016-06-20T10:02:46.682Z,1010.02
2016-06-20T10:03:46.717Z,1010.01
2016-06-20T10:04:46.736Z,1009.98
2016-06-20T10:05:46.772Z,1009.95
2016-06-20T10:06:46.806Z,1009.93
2016-06-20T10:07:46.841Z,1009.89
2016-06-20T10:08:46.860Z,1009.87
2016-06-20T10:09:46.895Z,1009.87
2016-06-20T10:10:46.929Z,1009.91
2016-06-20T10:11:46.949Z,1009.88
2016-06-20T10:12:46.983Z,1009.84
2016-06-20T10:13:47.017Z,1009.85
2016-06-20T10:14:47.052Z,1009.79
2016-06-20T10:15:47.072Z,1009.79
2016-06-20T10:16:47.106Z,1009.78
2016-06-20T10:17:47.141Z,1009.83
2016-06-20T10:18:47.160Z,1009.82
2016-06-20T10:19:47.195Z,1009.79
2016-06-20T10:20:47.229Z,1009.79
2016-06-20T10:21:47.248Z,1009.76
2016-06-20T10:22:47.284Z,1009.77
2016-06-20T10:23:47.318Z,1009.75
2016-06-20T10:24:47.352Z,1009.76
2016-06-20T10:25:47.372Z,1009.72
2016-06-20T10:26:47.406Z,1009.74
2016-06-20T10:27:47.440Z,1009.75
2016-06-20T10:28:47.460Z,1009.77
2016-06-20T10:29:47.495Z,1009.75
2016-06-20T10:30:47.529Z,1009.77
2016-06-20T10:31:47.565Z,1009.67
2016-06-20T10:32:47.583Z,1009.68
2016-06-20T10:33:47.619Z,1009.67
2016-06-20T10:34:47.653Z,1009.68
2016-06-20T10:35:47.797Z,1009.65
2016-06-20T10:36:47.800Z,1009.61
2016-06-20T10:37:47.835Z,1009.65
2016-06-20T10:38:47.854Z,1009.61
2016-06-20T10:39:47.857Z,1009.62
2016-06-20T10:40:47.860Z,1009.59
2016-06-20T10:41:47.864Z,1009.55
2016-06-20T10:42:48.009Z,1009.52
2016-06-20T10:43:48.028Z,1009.47
2016-06-20T10:44:48.062Z,1009.5
2016-06-20T10:45:47.984Z,1009.53
2016-06-20T10:46:48.003Z,1009.54
2016-06-20T10:47:48.054Z,1009.59
2016-06-20T10:48:48.088Z,1009.57
2016-06-20T10:49:48.108Z,1009.56
2016-06-20T10:50:48.142Z,1009.54
2016-06-20T10:51:48.178Z,1009.54
2016-06-20T10:52:48.196Z,1009.51
2016-06-20T10:53:48.230Z,1009.49
2016-06-20T10:54:48.266Z,1009.49
2016-06-20T10:55:48.300Z,1009.49
2016-06-20T10:56:48.320Z,1009.48
2016-06-20T10:57:48.354Z,1009.46
2016-06-20T10:58:48.389Z,1009.47
2016-06-20T10:59:48.408Z,1009.44
2016-06-20T11:00:48.442Z,1009.47
2016-06-20T11:01:48.493Z,1009.43
2016-06-20T11:02:48.512Z,1009.42
2016-06-20T11:03:48.547Z,1009.42
2016-06-20T11:04:48.581Z,1009.41
2016-06-20T11:05:48.601Z,1009.41
2016-06-20T11:06:48.635Z,1009.4
2016-06-20T11:07:48.670Z,1009.45
2016-06-20T11:08:48.689Z,1009.41
2016-06-20T11:09:48.723Z,1009.44
2016-06-20T11:10:48.758Z,1009.41
2016-06-20T11:11:48.793Z,1009.43
2016-06-20T11:12:48.828Z,1009.41
2016-06-20T11:13:48.862Z,1009.43
2016-06-20T11:14:48.882Z,1009.44
2016-06-20T11:15:48.916Z,1009.38
2016-06-20T11:16:48.951Z,1009.37
2016-06-20T11:17:48.986Z,1009.36
2016-06-20T11:18:49.021Z,1009.35
2016-06-20T11:19:49.039Z,1009.35
2016-06-20T11:20:49.074Z,1009.38
2016-06-20T11:21:49.109Z,1009.33
2016-06-20T11:22:49.144Z,1009.35
2016-06-20T11:23:49.178Z,1009.29
2016-06-20T11:24:49.198Z,1009.33
2016-06-20T11:25:49.232Z,1009.25
2016-06-20T11:26:49.267Z,1009.3
2016-06-20T11:27:49.348Z,1009.24
2016-06-20T11:28:49.336Z,1009.24
2016-06-20T11:29:49.371Z,1009.24
2016-06-20T11:30:49.390Z,1009.19
2016-06-20T11:31:49.425Z,1009.12
2016-06-20T11:32:49.459Z,1009.14
2016-06-20T11:33:49.478Z,1009.17
2016-06-20T11:34:49.513Z,1009.12
2016-06-20T11:35:49.547Z,1009.08
2016-06-20T11:36:49.583Z,1009.02
2016-06-20T11:37:49.618Z,1009.02
2016-06-20T11:38:49.636Z,1009.05
2016-06-20T11:39:49.671Z,1009.06
2016-06-20T11:40:49.706Z,1009.03
2016-06-20T11:41:49.740Z,1009
2016-06-20T11:42:49.775Z,1009.01
2016-06-20T11:43:49.811Z,1008.96
2016-06-20T11:44:49.829Z,1008.95
2016-06-20T11:45:49.864Z,1008.94
2016-06-20T11:46:49.899Z,1008.94
2016-06-20T11:47:49.933Z,1008.95
2016-06-20T11:48:49.968Z,1008.95
2016-06-20T11:49:50.003Z,1008.99
2016-06-20T11:50:50.038Z,1008.97
2016-06-20T11:51:50.056Z,1008.87
2016-06-20T11:52:50.091Z,1008.89
2016-06-20T11:53:50.125Z,1008.84
2016-06-20T11:54:50.160Z,1008.88
2016-06-20T11:55:50.195Z,1008.9
2016-06-20T11:56:50.245Z,1008.94
2016-06-20T11:57:53.937Z,1008.9
2016-06-20T12:11:24.060Z,1008.89
2016-06-20T12:11:29.482Z,1008.65
2016-06-20T12:12:27.581Z,1008.59
2016-06-20T12:13:28.318Z,1008.59
2016-06-20T12:14:27.635Z,1008.61
2016-06-20T12:15:27.670Z,1008.58
2016-06-20T12:16:27.704Z,1008.61
2016-06-20T12:17:27.740Z,1008.63
2016-06-20T12:18:27.774Z,1008.63
2016-06-20T12:19:27.809Z,1008.52
2016-06-20T12:20:27.844Z,1008.52